Page, Nebraska
Current Conditions -  °F | °C
As of 1:55 PM on Saturday 20 Dec 2014 (Local Time) from KONL Reporting Station
Clear Clear  
Wind Chill: 30°   Ceiling: Unl
Heat Index: 30°   Visibility: 10mi
Dew Point: 30°   Wind: 3mph
Humidity: 100%   Direction: 170°S
Pressure: 29.95"   Gusts: NA
Location:  42.4°N, 98.42°W
Report Text: KONL 201955Z AUTO 17003KT 10SM CLR M01/M01 A2995 RMK AO2 T10111011
Loading
Personal Weather Stations






























Interactive Weather Map New forecast layout! Learn more

10-Day Weather Forecast

Advertisements
Track Severe Weather on mobile